sensor_id;sensor_type;location;lat;lon;timestamp;temperature;humidity
4813;DHT22;2420;51.202;8.698;2024-03-23T00:54:13;8.40;1.00
4813;DHT22;2420;51.202;8.698;2024-03-23T00:56:39;8.30;1.00
4813;DHT22;2420;51.202;8.698;2024-03-23T00:59:04;8.20;1.00
4813;DHT22;2420;51.202;8.698;2024-03-23T01:01:30;8.10;1.00
4813;DHT22;2420;51.202;8.698;2024-03-23T01:03:55;7.90;1.00
4813;DHT22;2420;51.202;8.698;2024-03-23T01:06:21;7.80;1.00
4813;DHT22;2420;51.202;8.698;2024-03-23T01:08:46;7.70;1.00
4813;DHT22;2420;51.202;8.698;2024-03-23T01:11:12;7.70;1.00
4813;DHT22;2420;51.202;8.698;2024-03-23T01:13:37;7.80;1.00
4813;DHT22;2420;51.202;8.698;2024-03-23T01:16:03;7.80;1.00
4813;DHT22;2420;51.202;8.698;2024-03-23T01:18:29;7.90;1.00
4813;DHT22;2420;51.202;8.698;2024-03-23T01:20:54;7.90;1.00
4813;DHT22;2420;51.202;8.698;2024-03-23T01:23:20;7.90;1.00
4813;DHT22;2420;51.202;8.698;2024-03-23T01:25:55;7.70;1.00
4813;DHT22;2420;51.202;8.698;2024-03-23T01:28:21;7.60;1.00
4813;DHT22;2420;51.202;8.698;2024-03-23T01:30:47;7.50;1.00
4813;DHT22;2420;51.202;8.698;2024-03-23T01:33:12;7.60;1.00
4813;DHT22;2420;51.202;8.698;2024-03-23T01:35:38;7.50;1.00
4813;DHT22;2420;51.202;8.698;2024-03-23T01:38:04;7.40;1.00
4813;DHT22;2420;51.202;8.698;2024-03-23T01:40:29;7.30;1.00
4813;DHT22;2420;51.202;8.698;2024-03-23T01:43:07;7.20;1.00
4813;DHT22;2420;51.202;8.698;2024-03-23T01:45:34;7.10;1.00
4813;DHT22;2420;51.202;8.698;2024-03-23T01:48:00;7.00;1.00
4813;DHT22;2420;51.202;8.698;2024-03-23T01:50:26;7.00;1.00
4813;DHT22;2420;51.202;8.698;2024-03-23T01:52:53;7.00;1.00
4813;DHT22;2420;51.202;8.698;2024-03-23T01:55:19;7.00;1.00
4813;DHT22;2420;51.202;8.698;2024-03-23T01:57:45;6.90;1.00
4813;DHT22;2420;51.202;8.698;2024-03-23T02:00:11;6.90;1.00
4813;DHT22;2420;51.202;8.698;2024-03-23T02:02:42;6.70;1.00
4813;DHT22;2420;51.202;8.698;2024-03-23T02:05:08;6.60;1.00
4813;DHT22;2420;51.202;8.698;2024-03-23T02:07:33;6.50;1.00
4813;DHT22;2420;51.202;8.698;2024-03-23T02:10:00;6.40;1.00
4813;DHT22;2420;51.202;8.698;2024-03-23T02:12:26;6.30;1.00
4813;DHT22;2420;51.202;8.698;2024-03-23T02:14:51;6.30;1.00
4813;DHT22;2420;51.202;8.698;2024-03-23T02:17:17;6.10;1.00
4813;DHT22;2420;51.202;8.698;2024-03-23T02:19:43;5.90;1.00
4813;DHT22;2420;51.202;8.698;2024-03-23T02:22:08;5.80;1.00
4813;DHT22;2420;51.202;8.698;2024-03-23T02:24:36;5.80;1.00
4813;DHT22;2420;51.202;8.698;2024-03-23T02:27:02;5.70;1.00
4813;DHT22;2420;51.202;8.698;2024-03-23T02:29:28;5.70;1.00
4813;DHT22;2420;51.202;8.698;2024-03-23T02:31:53;5.70;1.00
4813;DHT22;2420;51.202;8.698;2024-03-23T02:34:19;5.70;1.00
4813;DHT22;2420;51.202;8.698;2024-03-23T02:36:44;5.60;1.00
4813;DHT22;2420;51.202;8.698;2024-03-23T02:39:10;5.60;1.00
4813;DHT22;2420;51.202;8.698;2024-03-23T02:41:36;5.50;1.00
4813;DHT22;2420;51.202;8.698;2024-03-23T02:44:02;5.60;1.00
4813;DHT22;2420;51.202;8.698;2024-03-23T02:46:27;5.30;1.00
4813;DHT22;2420;51.202;8.698;2024-03-23T02:48:53;5.60;1.00
4813;DHT22;2420;51.202;8.698;2024-03-23T02:51:18;5.50;1.00
4813;DHT22;2420;51.202;8.698;2024-03-23T02:53:44;5.40;1.00
4813;DHT22;2420;51.202;8.698;2024-03-23T02:56:10;5.50;1.00
4813;DHT22;2420;51.202;8.698;2024-03-23T02:58:41;5.40;1.00
4813;DHT22;2420;51.202;8.698;2024-03-23T03:01:06;5.50;1.00
4813;DHT22;2420;51.202;8.698;2024-03-23T03:03:32;5.50;1.00
4813;DHT22;2420;51.202;8.698;2024-03-23T03:05:58;5.50;1.00
4813;DHT22;2420;51.202;8.698;2024-03-23T03:08:23;5.60;1.00
4813;DHT22;2420;51.202;8.698;2024-03-23T03:10:49;5.20;1.00
4813;DHT22;2420;51.202;8.698;2024-03-23T03:13:14;5.50;1.00
4813;DHT22;2420;51.202;8.698;2024-03-23T03:15:42;5.50;1.00
4813;DHT22;2420;51.202;8.698;2024-03-23T03:18:08;5.60;1.00
4813;DHT22;2420;51.202;8.698;2024-03-23T03:20:34;5.70;1.00
4813;DHT22;2420;51.202;8.698;2024-03-23T03:23:00;5.50;1.00
4813;DHT22;2420;51.202;8.698;2024-03-23T03:25:25;5.50;1.00
4813;DHT22;2420;51.202;8.698;2024-03-23T03:27:51;5.30;1.00
4813;DHT22;2420;51.202;8.698;2024-03-23T03:30:16;5.40;1.00
4813;DHT22;2420;51.202;8.698;2024-03-23T03:32:42;5.60;1.00
4813;DHT22;2420;51.202;8.698;2024-03-23T03:35:08;5.20;1.00
4813;DHT22;2420;51.202;8.698;2024-03-23T03:37:34;5.10;1.00
4813;DHT22;2420;51.202;8.698;2024-03-23T03:39:59;5.30;1.00
4813;DHT22;2420;51.202;8.698;2024-03-23T03:42:25;5.00;1.00
4813;DHT22;2420;51.202;8.698;2024-03-23T03:44:50;5.00;1.00
4813;DHT22;2420;51.202;8.698;2024-03-23T03:47:16;4.90;1.00
4813;DHT22;2420;51.202;8.698;2024-03-23T03:49:42;4.90;1.00
4813;DHT22;2420;51.202;8.698;2024-03-23T03:52:08;4.90;1.00
4813;DHT22;2420;51.202;8.698;2024-03-23T03:54:33;5.10;1.00
4813;DHT22;2420;51.202;8.698;2024-03-23T03:56:59;4.80;1.00
4813;DHT22;2420;51.202;8.698;2024-03-23T03:59:24;5.20;1.00
4813;DHT22;2420;51.202;8.698;2024-03-23T04:01:50;5.30;1.00
4813;DHT22;2420;51.202;8.698;2024-03-23T04:04:15;5.20;1.00
4813;DHT22;2420;51.202;8.698;2024-03-23T04:06:42;5.20;1.00
4813;DHT22;2420;51.202;8.698;2024-03-23T04:09:09;4.90;1.00
4813;DHT22;2420;51.202;8.698;2024-03-23T04:11:35;5.00;1.00
4813;DHT22;2420;51.202;8.698;2024-03-23T04:14:01;5.00;1.00
4813;DHT22;2420;51.202;8.698;2024-03-23T04:16:33;5.10;1.00
4813;DHT22;2420;51.202;8.698;2024-03-23T04:19:00;5.10;1.00
4813;DHT22;2420;51.202;8.698;2024-03-23T04:21:25;5.10;1.00
4813;DHT22;2420;51.202;8.698;2024-03-23T04:23:51;5.10;1.00
4813;DHT22;2420;51.202;8.698;2024-03-23T04:26:17;4.90;1.00
4813;DHT22;2420;51.202;8.698;2024-03-23T04:28:42;5.00;1.00
4813;DHT22;2420;51.202;8.698;2024-03-23T04:31:08;5.10;1.00
4813;DHT22;2420;51.202;8.698;2024-03-23T04:33:34;5.00;1.00
4813;DHT22;2420;51.202;8.698;2024-03-23T04:35:59;5.40;1.00
4813;DHT22;2420;51.202;8.698;2024-03-23T04:38:25;5.10;1.00
4813;DHT22;2420;51.202;8.698;2024-03-23T04:40:58;5.10;1.00
4813;DHT22;2420;51.202;8.698;2024-03-23T04:43:23;5.00;1.00
4813;DHT22;2420;51.202;8.698;2024-03-23T04:45:49;5.30;1.00
4813;DHT22;2420;51.202;8.698;2024-03-23T04:48:15;5.20;1.00
4813;DHT22;2420;51.202;8.698;2024-03-23T04:50:41;5.00;1.00
4813;DHT22;2420;51.202;8.698;2024-03-23T04:53:07;5.10;1.00
4813;DHT22;2420;51.202;8.698;2024-03-23T04:55:32;4.90;1.00
4813;DHT22;2420;51.202;8.698;2024-03-23T04:57:58;4.90;1.00
4813;DHT22;2420;51.202;8.698;2024-03-23T05:00:23;4.70;1.00
4813;DHT22;2420;51.202;8.698;2024-03-23T05:02:50;4.70;1.00
4813;DHT22;2420;51.202;8.698;2024-03-23T05:05:16;4.70;1.00
4813;DHT22;2420;51.202;8.698;2024-03-23T05:07:41;4.70;1.00
4813;DHT22;2420;51.202;8.698;2024-03-23T05:10:08;4.60;1.00
4813;DHT22;2420;51.202;8.698;2024-03-23T05:12:36;4.70;1.00
4813;DHT22;2420;51.202;8.698;2024-03-23T08:13:14;4.40;1.00
4813;DHT22;2420;51.202;8.698;2024-03-23T08:15:40;4.90;1.00
4813;DHT22;2420;51.202;8.698;2024-03-23T08:18:06;4.80;1.00
4813;DHT22;2420;51.202;8.698;2024-03-23T08:20:31;4.80;1.00
4813;DHT22;2420;51.202;8.698;2024-03-23T08:22:57;4.90;1.00
4813;DHT22;2420;51.202;8.698;2024-03-23T08:25:22;4.80;1.00
4813;DHT22;2420;51.202;8.698;2024-03-23T08:27:48;5.10;1.00
4813;DHT22;2420;51.202;8.698;2024-03-23T08:30:13;4.90;1.00
4813;DHT22;2420;51.202;8.698;2024-03-23T08:32:39;4.80;1.00
4813;DHT22;2420;51.202;8.698;2024-03-23T08:35:05;4.90;1.00
4813;DHT22;2420;51.202;8.698;2024-03-23T08:37:31;4.90;1.00
4813;DHT22;2420;51.202;8.698;2024-03-23T08:39:56;4.70;1.00
4813;DHT22;2420;51.202;8.698;2024-03-23T08:42:22;4.60;1.00
4813;DHT22;2420;51.202;8.698;2024-03-23T08:44:47;4.90;1.00
4813;DHT22;2420;51.202;8.698;2024-03-23T08:47:15;5.00;1.00
4813;DHT22;2420;51.202;8.698;2024-03-23T08:49:41;4.90;1.00
4813;DHT22;2420;51.202;8.698;2024-03-23T08:52:07;4.90;1.00
4813;DHT22;2420;51.202;8.698;2024-03-23T08:54:32;4.90;1.00
4813;DHT22;2420;51.202;8.698;2024-03-23T08:56:59;5.10;1.00
4813;DHT22;2420;51.202;8.698;2024-03-23T08:59:24;5.00;1.00
4813;DHT22;2420;51.202;8.698;2024-03-23T09:01:50;5.10;1.00
4813;DHT22;2420;51.202;8.698;2024-03-23T09:04:15;5.30;1.00
4813;DHT22;2420;51.202;8.698;2024-03-23T09:06:44;5.20;1.00
4813;DHT22;2420;51.202;8.698;2024-03-23T09:09:10;5.40;1.00
4813;DHT22;2420;51.202;8.698;2024-03-23T09:11:35;5.10;1.00
4813;DHT22;2420;51.202;8.698;2024-03-23T09:14:03;5.10;1.00
4813;DHT22;2420;51.202;8.698;2024-03-23T09:16:28;5.40;1.00
4813;DHT22;2420;51.202;8.698;2024-03-23T09:18:53;5.50;1.00
4813;DHT22;2420;51.202;8.698;2024-03-23T09:33:30;5.80;1.00
4813;DHT22;2420;51.202;8.698;2024-03-23T09:35:55;6.00;1.00
4813;DHT22;2420;51.202;8.698;2024-03-23T09:38:24;6.00;1.00
4813;DHT22;2420;51.202;8.698;2024-03-23T09:40:53;5.50;1.00
4813;DHT22;2420;51.202;8.698;2024-03-23T09:43:19;5.40;1.00
4813;DHT22;2420;51.202;8.698;2024-03-23T09:45:46;5.90;1.00
4813;DHT22;2420;51.202;8.698;2024-03-23T11:09:51;6.30;1.00
4813;DHT22;2420;51.202;8.698;2024-03-23T11:12:25;5.20;1.00
4813;DHT22;2420;51.202;8.698;2024-03-23T11:15:04;4.90;1.00
4813;DHT22;2420;51.202;8.698;2024-03-23T11:17:30;4.70;1.00
4813;DHT22;2420;51.202;8.698;2024-03-23T11:19:57;4.70;1.00
4813;DHT22;2420;51.202;8.698;2024-03-23T11:22:44;4.80;1.00
4813;DHT22;2420;51.202;8.698;2024-03-23T11:25:18;4.50;1.00
4813;DHT22;2420;51.202;8.698;2024-03-23T11:27:47;4.70;1.00
4813;DHT22;2420;51.202;8.698;2024-03-23T11:30:17;4.80;1.00
4813;DHT22;2420;51.202;8.698;2024-03-23T11:32:45;4.70;1.00
4813;DHT22;2420;51.202;8.698;2024-03-23T11:35:24;5.00;1.00
4813;DHT22;2420;51.202;8.698;2024-03-23T11:38:08;5.30;1.00
4813;DHT22;2420;51.202;8.698;2024-03-23T11:40:35;5.70;1.00
4813;DHT22;2420;51.202;8.698;2024-03-23T11:43:03;5.50;1.00
4813;DHT22;2420;51.202;8.698;2024-03-23T11:45:37;6.00;1.00
4813;DHT22;2420;51.202;8.698;2024-03-23T11:48:08;6.30;1.00
4813;DHT22;2420;51.202;8.698;2024-03-23T11:50:36;6.50;1.00
4813;DHT22;2420;51.202;8.698;2024-03-23T11:55:42;6.70;1.00
4813;DHT22;2420;51.202;8.698;2024-03-23T11:58:07;7.10;1.00
4813;DHT22;2420;51.202;8.698;2024-03-23T12:00:34;7.10;1.00
4813;DHT22;2420;51.202;8.698;2024-03-23T12:03:01;7.00;1.00
4813;DHT22;2420;51.202;8.698;2024-03-23T12:05:27;6.90;1.00
4813;DHT22;2420;51.202;8.698;2024-03-23T12:07:53;7.00;1.00
4813;DHT22;2420;51.202;8.698;2024-03-23T12:10:19;7.00;1.00
4813;DHT22;2420;51.202;8.698;2024-03-23T12:12:45;6.80;1.00
4813;DHT22;2420;51.202;8.698;2024-03-23T12:15:11;6.70;1.00
4813;DHT22;2420;51.202;8.698;2024-03-23T12:17:38;6.60;1.00
4813;DHT22;2420;51.202;8.698;2024-03-23T12:20:04;6.50;1.00
4813;DHT22;2420;51.202;8.698;2024-03-23T12:22:30;6.60;1.00
4813;DHT22;2420;51.202;8.698;2024-03-23T12:24:56;6.30;1.00
4813;DHT22;2420;51.202;8.698;2024-03-23T12:27:23;6.30;1.00
4813;DHT22;2420;51.202;8.698;2024-03-23T12:29:49;6.30;1.00
4813;DHT22;2420;51.202;8.698;2024-03-23T12:32:14;6.30;1.00
4813;DHT22;2420;51.202;8.698;2024-03-23T12:34:41;6.20;1.00
4813;DHT22;2420;51.202;8.698;2024-03-23T12:37:07;6.40;1.00
4813;DHT22;2420;51.202;8.698;2024-03-23T12:39:32;6.20;1.00
4813;DHT22;2420;51.202;8.698;2024-03-23T12:42:00;6.80;1.00
4813;DHT22;2420;51.202;8.698;2024-03-23T12:44:25;6.70;1.00
4813;DHT22;2420;51.202;8.698;2024-03-23T12:46:51;6.70;1.00
4813;DHT22;2420;51.202;8.698;2024-03-23T12:49:16;6.60;1.00
4813;DHT22;2420;51.202;8.698;2024-03-23T12:51:54;6.50;1.00
4813;DHT22;2420;51.202;8.698;2024-03-23T12:54:21;6.20;1.00
4813;DHT22;2420;51.202;8.698;2024-03-23T12:59:12;5.90;1.00
4813;DHT22;2420;51.202;8.698;2024-03-23T13:01:39;4.60;1.00
4813;DHT22;2420;51.202;8.698;2024-03-23T13:04:05;4.50;1.00
4813;DHT22;2420;51.202;8.698;2024-03-23T13:06:31;4.80;1.00
4813;DHT22;2420;51.202;8.698;2024-03-23T13:09:03;5.20;1.00
4813;DHT22;2420;51.202;8.698;2024-03-23T13:11:29;5.20;1.00
4813;DHT22;2420;51.202;8.698;2024-03-23T13:13:55;5.70;1.00
4813;DHT22;2420;51.202;8.698;2024-03-23T13:16:21;5.90;1.00
4813;DHT22;2420;51.202;8.698;2024-03-23T13:18:46;6.00;1.00
4813;DHT22;2420;51.202;8.698;2024-03-23T13:21:12;6.00;1.00
4813;DHT22;2420;51.202;8.698;2024-03-23T13:23:37;6.00;1.00
4813;DHT22;2420;51.202;8.698;2024-03-23T13:26:05;5.70;1.00
4813;DHT22;2420;51.202;8.698;2024-03-23T13:28:30;5.90;1.00
4813;DHT22;2420;51.202;8.698;2024-03-23T13:30:56;6.00;1.00
4813;DHT22;2420;51.202;8.698;2024-03-23T13:33:29;5.90;1.00
4813;DHT22;2420;51.202;8.698;2024-03-23T13:35:56;5.90;1.00
4813;DHT22;2420;51.202;8.698;2024-03-23T13:38:22;6.00;1.00
4813;DHT22;2420;51.202;8.698;2024-03-23T13:43:20;6.40;1.00
4813;DHT22;2420;51.202;8.698;2024-03-23T13:45:47;6.50;1.00
4813;DHT22;2420;51.202;8.698;2024-03-23T13:48:13;6.30;1.00
4813;DHT22;2420;51.202;8.698;2024-03-23T13:50:39;6.20;1.00
4813;DHT22;2420;51.202;8.698;2024-03-23T13:53:05;5.90;1.00
4813;DHT22;2420;51.202;8.698;2024-03-23T13:55:31;5.80;1.00
4813;DHT22;2420;51.202;8.698;2024-03-23T13:57:57;5.70;1.00
4813;DHT22;2420;51.202;8.698;2024-03-23T14:00:23;5.70;1.00
4813;DHT22;2420;51.202;8.698;2024-03-23T14:02:48;5.80;1.00
4813;DHT22;2420;51.202;8.698;2024-03-23T14:05:14;5.80;1.00
4813;DHT22;2420;51.202;8.698;2024-03-23T14:07:40;5.80;1.00
4813;DHT22;2420;51.202;8.698;2024-03-23T14:10:06;5.80;1.00
4813;DHT22;2420;51.202;8.698;2024-03-23T14:12:38;5.40;1.00
4813;DHT22;2420;51.202;8.698;2024-03-23T14:15:07;5.60;1.00
4813;DHT22;2420;51.202;8.698;2024-03-23T14:17:32;5.60;1.00
4813;DHT22;2420;51.202;8.698;2024-03-23T14:19:58;5.90;1.00
4813;DHT22;2420;51.202;8.698;2024-03-23T14:22:27;6.00;1.00
4813;DHT22;2420;51.202;8.698;2024-03-23T14:24:52;6.20;1.00
4813;DHT22;2420;51.202;8.698;2024-03-23T14:27:18;6.10;1.00
4813;DHT22;2420;51.202;8.698;2024-03-23T14:29:46;6.20;1.00
4813;DHT22;2420;51.202;8.698;2024-03-23T14:32:12;6.00;1.00
4813;DHT22;2420;51.202;8.698;2024-03-23T14:34:37;6.30;1.00
4813;DHT22;2420;51.202;8.698;2024-03-23T14:37:03;6.20;1.00
4813;DHT22;2420;51.202;8.698;2024-03-23T14:39:29;6.10;1.00
4813;DHT22;2420;51.202;8.698;2024-03-23T14:41:55;6.10;1.00
4813;DHT22;2420;51.202;8.698;2024-03-23T14:44:21;6.20;1.00
4813;DHT22;2420;51.202;8.698;2024-03-23T14:46:47;6.30;1.00
4813;DHT22;2420;51.202;8.698;2024-03-23T14:49:16;6.40;1.00
4813;DHT22;2420;51.202;8.698;2024-03-23T14:51:42;6.40;1.00
4813;DHT22;2420;51.202;8.698;2024-03-23T14:54:08;6.40;1.00
4813;DHT22;2420;51.202;8.698;2024-03-23T14:56:33;6.00;1.00
4813;DHT22;2420;51.202;8.698;2024-03-23T14:59:00;6.40;1.00
4813;DHT22;2420;51.202;8.698;2024-03-23T15:01:26;6.30;1.00
4813;DHT22;2420;51.202;8.698;2024-03-23T15:03:51;6.30;1.00
4813;DHT22;2420;51.202;8.698;2024-03-23T15:06:18;6.50;1.00
4813;DHT22;2420;51.202;8.698;2024-03-23T15:08:44;6.10;1.00
4813;DHT22;2420;51.202;8.698;2024-03-23T15:11:10;6.60;1.00
4813;DHT22;2420;51.202;8.698;2024-03-23T15:13:37;6.60;1.00
4813;DHT22;2420;51.202;8.698;2024-03-23T15:16:06;6.70;1.00
4813;DHT22;2420;51.202;8.698;2024-03-23T15:18:32;6.70;1.00
4813;DHT22;2420;51.202;8.698;2024-03-23T15:20:59;6.80;1.00
4813;DHT22;2420;51.202;8.698;2024-03-23T15:23:28;6.70;1.00
4813;DHT22;2420;51.202;8.698;2024-03-23T15:28:21;6.50;1.00
4813;DHT22;2420;51.202;8.698;2024-03-23T15:30:47;6.60;1.00
4813;DHT22;2420;51.202;8.698;2024-03-23T15:33:12;6.50;1.00
4813;DHT22;2420;51.202;8.698;2024-03-23T15:35:38;6.10;1.00
4813;DHT22;2420;51.202;8.698;2024-03-23T15:38:03;6.10;1.00
4813;DHT22;2420;51.202;8.698;2024-03-23T15:40:29;6.50;1.00
4813;DHT22;2420;51.202;8.698;2024-03-23T15:42:54;6.80;1.00
4813;DHT22;2420;51.202;8.698;2024-03-23T15:45:20;6.50;1.00
4813;DHT22;2420;51.202;8.698;2024-03-23T15:47:45;6.50;1.00
4813;DHT22;2420;51.202;8.698;2024-03-23T15:50:11;6.40;1.00
4813;DHT22;2420;51.202;8.698;2024-03-23T15:52:37;6.40;1.00
4813;DHT22;2420;51.202;8.698;2024-03-23T15:55:06;6.50;1.00
4813;DHT22;2420;51.202;8.698;2024-03-23T15:57:35;6.50;1.00
4813;DHT22;2420;51.202;8.698;2024-03-23T16:00:02;6.40;1.00
4813;DHT22;2420;51.202;8.698;2024-03-23T16:02:28;6.40;1.00
4813;DHT22;2420;51.202;8.698;2024-03-23T16:04:54;5.80;1.00
4813;DHT22;2420;51.202;8.698;2024-03-23T16:07:20;6.00;1.00
4813;DHT22;2420;51.202;8.698;2024-03-23T16:09:46;5.90;1.00
4813;DHT22;2420;51.202;8.698;2024-03-23T16:12:11;5.70;1.00
4813;DHT22;2420;51.202;8.698;2024-03-23T16:14:37;5.60;1.00
4813;DHT22;2420;51.202;8.698;2024-03-23T16:17:03;5.70;1.00
4813;DHT22;2420;51.202;8.698;2024-03-23T16:19:28;5.70;1.00
4813;DHT22;2420;51.202;8.698;2024-03-23T16:21:54;5.50;1.00
4813;DHT22;2420;51.202;8.698;2024-03-23T16:24:21;5.60;1.00
4813;DHT22;2420;51.202;8.698;2024-03-23T16:26:46;5.80;1.00
4813;DHT22;2420;51.202;8.698;2024-03-23T16:29:12;5.60;1.00
4813;DHT22;2420;51.202;8.698;2024-03-23T16:31:37;5.70;1.00
4813;DHT22;2420;51.202;8.698;2024-03-23T16:34:03;5.60;1.00
4813;DHT22;2420;51.202;8.698;2024-03-23T16:36:28;5.60;1.00
4813;DHT22;2420;51.202;8.698;2024-03-23T16:38:54;5.70;1.00
4813;DHT22;2420;51.202;8.698;2024-03-23T16:41:20;5.60;1.00
4813;DHT22;2420;51.202;8.698;2024-03-23T16:43:45;5.40;1.00
4813;DHT22;2420;51.202;8.698;2024-03-23T16:46:12;5.40;1.00
4813;DHT22;2420;51.202;8.698;2024-03-23T16:48:40;5.20;1.00
4813;DHT22;2420;51.202;8.698;2024-03-23T16:51:06;5.20;1.00
4813;DHT22;2420;51.202;8.698;2024-03-23T16:53:33;5.40;1.00
4813;DHT22;2420;51.202;8.698;2024-03-23T16:56:03;5.00;1.00
4813;DHT22;2420;51.202;8.698;2024-03-23T16:58:30;5.00;1.00
4813;DHT22;2420;51.202;8.698;2024-03-23T17:01:02;5.10;1.00
4813;DHT22;2420;51.202;8.698;2024-03-23T17:03:28;5.20;1.00
4813;DHT22;2420;51.202;8.698;2024-03-23T17:05:53;5.00;1.00
4813;DHT22;2420;51.202;8.698;2024-03-23T17:08:19;4.80;1.00
4813;DHT22;2420;51.202;8.698;2024-03-23T17:10:45;5.00;1.00
4813;DHT22;2420;51.202;8.698;2024-03-23T17:13:11;5.00;1.00
4813;DHT22;2420;51.202;8.698;2024-03-23T17:15:47;5.10;1.00
4813;DHT22;2420;51.202;8.698;2024-03-23T17:18:12;4.70;1.00
4813;DHT22;2420;51.202;8.698;2024-03-23T17:20:39;4.90;1.00
4813;DHT22;2420;51.202;8.698;2024-03-23T17:23:05;4.70;1.00
4813;DHT22;2420;51.202;8.698;2024-03-23T17:25:31;4.90;1.00
4813;DHT22;2420;51.202;8.698;2024-03-23T17:27:56;4.70;1.00
4813;DHT22;2420;51.202;8.698;2024-03-23T17:30:22;4.60;1.00
4813;DHT22;2420;51.202;8.698;2024-03-23T17:32:47;4.80;1.00
4813;DHT22;2420;51.202;8.698;2024-03-23T17:35:14;4.70;1.00
4813;DHT22;2420;51.202;8.698;2024-03-23T17:37:40;4.70;1.00
4813;DHT22;2420;51.202;8.698;2024-03-23T17:40:07;4.50;1.00
4813;DHT22;2420;51.202;8.698;2024-03-23T17:42:39;4.30;1.00
4813;DHT22;2420;51.202;8.698;2024-03-23T17:45:06;4.60;1.00
4813;DHT22;2420;51.202;8.698;2024-03-23T17:47:40;4.50;1.00
4813;DHT22;2420;51.202;8.698;2024-03-23T17:50:06;4.40;1.00
4813;DHT22;2420;51.202;8.698;2024-03-23T17:52:32;4.40;1.00
4813;DHT22;2420;51.202;8.698;2024-03-23T17:54:57;4.40;1.00
4813;DHT22;2420;51.202;8.698;2024-03-23T17:57:23;4.10;1.00
4813;DHT22;2420;51.202;8.698;2024-03-23T17:59:49;4.10;1.00
4813;DHT22;2420;51.202;8.698;2024-03-23T18:02:15;4.20;1.00
4813;DHT22;2420;51.202;8.698;2024-03-23T18:04:41;4.00;1.00
4813;DHT22;2420;51.202;8.698;2024-03-23T18:07:07;4.10;1.00
4813;DHT22;2420;51.202;8.698;2024-03-23T18:09:32;4.20;1.00
4813;DHT22;2420;51.202;8.698;2024-03-23T18:11:58;4.30;1.00
4813;DHT22;2420;51.202;8.698;2024-03-23T18:14:23;4.20;1.00
4813;DHT22;2420;51.202;8.698;2024-03-23T18:16:49;4.20;1.00
4813;DHT22;2420;51.202;8.698;2024-03-23T18:19:16;4.10;1.00
4813;DHT22;2420;51.202;8.698;2024-03-23T18:21:42;3.90;1.00
4813;DHT22;2420;51.202;8.698;2024-03-23T18:24:07;3.90;1.00
4813;DHT22;2420;51.202;8.698;2024-03-23T18:26:33;4.20;1.00
4813;DHT22;2420;51.202;8.698;2024-03-23T18:28:58;4.20;1.00
4813;DHT22;2420;51.202;8.698;2024-03-23T18:31:24;4.30;1.00
4813;DHT22;2420;51.202;8.698;2024-03-23T18:33:49;4.10;1.00
4813;DHT22;2420;51.202;8.698;2024-03-23T18:36:15;4.00;1.00
4813;DHT22;2420;51.202;8.698;2024-03-23T18:38:40;4.00;1.00
4813;DHT22;2420;51.202;8.698;2024-03-23T18:41:06;3.80;1.00
4813;DHT22;2420;51.202;8.698;2024-03-23T18:43:33;4.00;1.00
4813;DHT22;2420;51.202;8.698;2024-03-23T18:45:59;4.00;1.00
4813;DHT22;2420;51.202;8.698;2024-03-23T18:48:24;3.70;1.00
4813;DHT22;2420;51.202;8.698;2024-03-23T18:50:50;3.90;1.00
4813;DHT22;2420;51.202;8.698;2024-03-23T18:53:16;3.60;1.00
4813;DHT22;2420;51.202;8.698;2024-03-23T18:55:54;3.80;1.00
4813;DHT22;2420;51.202;8.698;2024-03-23T18:58:19;3.60;1.00
4813;DHT22;2420;51.202;8.698;2024-03-23T19:00:45;3.80;1.00
4813;DHT22;2420;51.202;8.698;2024-03-23T19:03:11;3.70;1.00
4813;DHT22;2420;51.202;8.698;2024-03-23T19:05:37;3.60;1.00
4813;DHT22;2420;51.202;8.698;2024-03-23T19:08:03;3.80;1.00
4813;DHT22;2420;51.202;8.698;2024-03-23T19:10:29;3.50;1.00
4813;DHT22;2420;51.202;8.698;2024-03-23T19:12:55;3.60;1.00
4813;DHT22;2420;51.202;8.698;2024-03-23T19:15:20;3.70;1.00
4813;DHT22;2420;51.202;8.698;2024-03-23T19:17:46;3.60;1.00
4813;DHT22;2420;51.202;8.698;2024-03-23T19:20:12;3.30;1.00
4813;DHT22;2420;51.202;8.698;2024-03-23T19:22:39;3.50;1.00
4813;DHT22;2420;51.202;8.698;2024-03-23T19:25:05;3.60;1.00
4813;DHT22;2420;51.202;8.698;2024-03-23T19:27:37;3.50;1.00
4813;DHT22;2420;51.202;8.698;2024-03-23T19:30:07;3.40;1.00
4813;DHT22;2420;51.202;8.698;2024-03-23T19:32:35;3.60;1.00
4813;DHT22;2420;51.202;8.698;2024-03-23T19:35:01;3.30;1.00
4813;DHT22;2420;51.202;8.698;2024-03-23T19:37:26;3.40;1.00
4813;DHT22;2420;51.202;8.698;2024-03-23T19:39:52;3.60;1.00
4813;DHT22;2420;51.202;8.698;2024-03-23T19:42:17;3.50;1.00
4813;DHT22;2420;51.202;8.698;2024-03-23T19:44:44;3.40;1.00
4813;DHT22;2420;51.202;8.698;2024-03-23T19:47:10;3.20;1.00
4813;DHT22;2420;51.202;8.698;2024-03-23T19:49:35;3.40;1.00
4813;DHT22;2420;51.202;8.698;2024-03-23T19:52:02;3.30;1.00
4813;DHT22;2420;51.202;8.698;2024-03-23T19:54:28;3.30;1.00
4813;DHT22;2420;51.202;8.698;2024-03-23T19:56:54;3.20;1.00
4813;DHT22;2420;51.202;8.698;2024-03-23T19:59:20;3.10;1.00
4813;DHT22;2420;51.202;8.698;2024-03-23T20:01:46;3.20;1.00
4813;DHT22;2420;51.202;8.698;2024-03-23T20:04:12;3.50;1.00
4813;DHT22;2420;51.202;8.698;2024-03-23T20:06:38;3.30;1.00
4813;DHT22;2420;51.202;8.698;2024-03-23T20:09:04;3.40;1.00
4813;DHT22;2420;51.202;8.698;2024-03-23T20:11:30;3.50;1.00
4813;DHT22;2420;51.202;8.698;2024-03-23T20:13:55;3.40;1.00
4813;DHT22;2420;51.202;8.698;2024-03-23T20:16:21;3.60;1.00
4813;DHT22;2420;51.202;8.698;2024-03-23T20:18:55;3.70;1.00
4813;DHT22;2420;51.202;8.698;2024-03-23T20:21:21;3.50;1.00
4813;DHT22;2420;51.202;8.698;2024-03-23T20:23:46;3.50;1.00
4813;DHT22;2420;51.202;8.698;2024-03-23T20:26:12;3.40;1.00
4813;DHT22;2420;51.202;8.698;2024-03-23T20:28:37;3.30;1.00
4813;DHT22;2420;51.202;8.698;2024-03-23T20:31:03;3.40;1.00
4813;DHT22;2420;51.202;8.698;2024-03-23T20:33:29;3.30;1.00
4813;DHT22;2420;51.202;8.698;2024-03-23T20:35:55;3.40;1.00
4813;DHT22;2420;51.202;8.698;2024-03-23T20:38:22;3.20;1.00
4813;DHT22;2420;51.202;8.698;2024-03-23T20:40:57;3.10;1.00
4813;DHT22;2420;51.202;8.698;2024-03-23T20:43:23;3.20;1.00
4813;DHT22;2420;51.202;8.698;2024-03-23T20:48:21;3.20;1.00
4813;DHT22;2420;51.202;8.698;2024-03-23T20:50:58;3.00;1.00
4813;DHT22;2420;51.202;8.698;2024-03-23T20:53:24;3.20;1.00
4813;DHT22;2420;51.202;8.698;2024-03-23T20:55:51;3.30;1.00
4813;DHT22;2420;51.202;8.698;2024-03-23T20:58:16;3.00;1.00
4813;DHT22;2420;51.202;8.698;2024-03-23T21:00:42;3.20;1.00
4813;DHT22;2420;51.202;8.698;2024-03-23T21:03:07;2.90;1.00
4813;DHT22;2420;51.202;8.698;2024-03-23T21:05:33;2.90;1.00
4813;DHT22;2420;51.202;8.698;2024-03-23T21:07:59;3.20;1.00
4813;DHT22;2420;51.202;8.698;2024-03-23T21:10:25;3.20;1.00
4813;DHT22;2420;51.202;8.698;2024-03-23T21:12:52;2.90;1.00
4813;DHT22;2420;51.202;8.698;2024-03-23T21:15:18;2.80;1.00
4813;DHT22;2420;51.202;8.698;2024-03-23T21:17:43;3.10;1.00
4813;DHT22;2420;51.202;8.698;2024-03-23T21:20:09;3.00;1.00
4813;DHT22;2420;51.202;8.698;2024-03-23T21:22:34;2.90;1.00
4813;DHT22;2420;51.202;8.698;2024-03-23T21:25:00;3.00;1.00
4813;DHT22;2420;51.202;8.698;2024-03-23T21:27:25;3.00;1.00
4813;DHT22;2420;51.202;8.698;2024-03-23T21:29:51;3.00;1.00
4813;DHT22;2420;51.202;8.698;2024-03-23T21:32:16;2.80;1.00
4813;DHT22;2420;51.202;8.698;2024-03-23T21:34:44;2.90;1.00
4813;DHT22;2420;51.202;8.698;2024-03-23T21:37:09;3.00;1.00
4813;DHT22;2420;51.202;8.698;2024-03-23T21:39:35;2.80;1.00
4813;DHT22;2420;51.202;8.698;2024-03-23T21:42:00;2.90;1.00
4813;DHT22;2420;51.202;8.698;2024-03-23T21:44:26;3.10;1.00
4813;DHT22;2420;51.202;8.698;2024-03-23T21:46:51;2.90;1.00
4813;DHT22;2420;51.202;8.698;2024-03-23T21:49:17;2.90;1.00
4813;DHT22;2420;51.202;8.698;2024-03-23T21:51:42;2.70;1.00
4813;DHT22;2420;51.202;8.698;2024-03-23T21:54:08;2.70;1.00
4813;DHT22;2420;51.202;8.698;2024-03-23T21:56:33;2.90;1.00
4813;DHT22;2420;51.202;8.698;2024-03-23T21:58:59;2.90;1.00
4813;DHT22;2420;51.202;8.698;2024-03-23T22:01:25;2.80;1.00
4813;DHT22;2420;51.202;8.698;2024-03-23T22:03:50;2.90;1.00
4813;DHT22;2420;51.202;8.698;2024-03-23T22:06:19;2.70;1.00